createdAt,value
2019-06-27T00:00:12.474Z,94.67
2019-06-27T00:00:48.728Z,94.48
2019-06-27T00:01:25.079Z,94.35
2019-06-27T00:02:00.581Z,93.93
2019-06-27T00:02:36.909Z,93.65
2019-06-27T00:03:13.225Z,93.58
2019-06-27T00:03:48.742Z,93.77
2019-06-27T00:04:24.945Z,94.37
2019-06-27T00:05:01.279Z,94.70
2019-06-27T00:05:36.912Z,94.74
2019-06-27T00:06:13.252Z,94.57
2019-06-27T00:06:49.593Z,94.07
2019-06-27T00:07:25.223Z,93.71
2019-06-27T00:08:01.498Z,93.58
2019-06-27T00:08:37.949Z,93.56
2019-06-27T00:09:14.348Z,93.61
2019-06-27T00:09:50.682Z,93.77
2019-06-27T00:10:27.020Z,93.83
2019-06-27T00:11:02.636Z,93.80
2019-06-27T00:11:38.948Z,93.95
2019-06-27T00:12:15.215Z,94.06
2019-06-27T00:12:51.045Z,94.12
2019-06-27T00:13:27.347Z,94.02
2019-06-27T00:14:04.035Z,93.96
2019-06-27T00:14:39.542Z,93.80
2019-06-27T00:15:16.394Z,93.85
2019-06-27T00:15:52.644Z,94.14
2019-06-27T00:16:28.128Z,94.24
2019-06-27T00:17:04.424Z,94.27
2019-06-27T00:17:40.722Z,94.33
2019-06-27T00:18:16.242Z,94.04
2019-06-27T00:18:52.604Z,94.10
2019-06-27T00:19:28.888Z,94.54
2019-06-27T00:20:04.363Z,94.82
2019-06-27T00:20:40.958Z,94.80
2019-06-27T00:21:17.312Z,95.03
2019-06-27T00:21:52.825Z,95.15
2019-06-27T00:22:29.051Z,95.31
2019-06-27T00:23:05.342Z,95.65
2019-06-27T00:23:40.895Z,95.76
2019-06-27T00:24:17.353Z,95.89
2019-06-27T00:24:53.654Z,95.86
2019-06-27T00:25:29.102Z,95.78
2019-06-27T00:26:05.551Z,95.58
2019-06-27T00:26:56.081Z,95.63
2019-06-27T00:27:19.356Z,95.35
2019-06-27T00:27:57.100Z,95.38
2019-06-27T00:28:33.437Z,95.51
2019-06-27T00:29:09.134Z,95.34
2019-06-27T00:29:45.362Z,95.09
2019-06-27T00:30:21.754Z,95.25
2019-06-27T00:30:57.369Z,95.11
2019-06-27T00:31:33.659Z,95.32
2019-06-27T00:32:09.942Z,95.35
2019-06-27T00:32:45.442Z,95.15
2019-06-27T00:33:21.861Z,95.18
2019-06-27T00:33:58.130Z,95.09
2019-06-27T00:34:33.645Z,94.79
2019-06-27T00:35:10.136Z,94.68
2019-06-27T00:35:46.377Z,94.74
2019-06-27T00:36:21.863Z,94.78
2019-06-27T00:36:58.186Z,94.74
2019-06-27T00:37:34.432Z,94.70
2019-06-27T00:38:10.042Z,94.70
2019-06-27T00:38:46.443Z,94.67
2019-06-27T00:39:22.776Z,95.02
2019-06-27T00:39:58.328Z,95.28
2019-06-27T00:40:34.707Z,95.18
2019-06-27T00:41:10.974Z,95.11
2019-06-27T00:41:46.538Z,95.38
2019-06-27T00:42:22.918Z,95.24
2019-06-27T00:42:59.179Z,94.96
2019-06-27T00:43:34.676Z,95.17
2019-06-27T00:44:11.083Z,95.34
2019-06-27T00:44:47.379Z,95.24
2019-06-27T00:45:22.837Z,95.12
2019-06-27T00:45:59.542Z,95.01
2019-06-27T00:46:35.773Z,95.22
2019-06-27T00:47:11.263Z,94.99
2019-06-27T00:47:47.537Z,94.62
2019-06-27T00:48:23.816Z,94.73
2019-06-27T00:48:59.317Z,94.33
2019-06-27T00:49:35.967Z,94.35
2019-06-27T00:50:12.934Z,94.47
2019-06-27T00:50:48.440Z,94.54
2019-06-27T00:51:24.710Z,94.58
2019-06-27T00:52:01.124Z,94.60
2019-06-27T00:52:36.655Z,94.71
2019-06-27T00:53:12.905Z,94.80
2019-06-27T00:53:49.309Z,95.06
2019-06-27T00:54:24.818Z,94.64
2019-06-27T00:55:01.073Z,94.38
2019-06-27T00:55:37.304Z,94.57
2019-06-27T00:56:13.131Z,94.75
2019-06-27T00:56:49.553Z,94.81
2019-06-27T00:57:25.931Z,94.86
2019-06-27T00:58:02.305Z,95.03
2019-06-27T00:58:38.734Z,95.04
2019-06-27T00:59:15.222Z,94.87
2019-06-27T00:59:50.695Z,94.44
2019-06-27T01:00:26.964Z,94.28
2019-06-27T01:01:03.366Z,94.51
2019-06-27T01:01:38.905Z,94.13
2019-06-27T01:02:15.668Z,94.11
2019-06-27T01:02:51.962Z,94.07
2019-06-27T01:03:27.560Z,94.35
2019-06-27T01:04:03.897Z,94.58
2019-06-27T01:04:40.205Z,94.35
2019-06-27T01:05:15.809Z,94.21
2019-06-27T01:05:52.178Z,94.35
2019-06-27T01:06:28.457Z,94.23
2019-06-27T01:07:03.893Z,94.43
2019-06-27T01:07:40.139Z,94.66
2019-06-27T01:08:16.692Z,94.77
2019-06-27T01:08:52.177Z,94.99
2019-06-27T01:09:28.446Z,94.98
2019-06-27T01:10:05.192Z,94.93
2019-06-27T01:10:40.744Z,95.11
2019-06-27T01:11:17.087Z,95.09
2019-06-27T01:11:53.418Z,94.90
2019-06-27T01:12:29.207Z,94.75
2019-06-27T01:13:05.455Z,94.57
2019-06-27T01:13:41.756Z,94.54
2019-06-27T01:14:17.248Z,94.54
2019-06-27T01:14:53.473Z,94.83
2019-06-27T01:15:29.744Z,95.00
2019-06-27T01:16:05.377Z,95.12
2019-06-27T01:16:41.798Z,94.98
2019-06-27T01:17:18.078Z,94.78
2019-06-27T01:17:53.769Z,94.92
2019-06-27T01:18:29.997Z,94.66
2019-06-27T01:19:06.303Z,94.29
2019-06-27T01:19:41.777Z,94.10
2019-06-27T01:20:18.539Z,94.13
2019-06-27T01:20:54.824Z,94.28
2019-06-27T01:21:30.430Z,94.38
2019-06-27T01:22:06.757Z,94.51
2019-06-27T01:22:43.083Z,94.96
2019-06-27T01:23:18.868Z,95.09
2019-06-27T01:23:55.130Z,94.89
2019-06-27T01:24:31.402Z,94.51
2019-06-27T01:25:08.515Z,94.51
2019-06-27T01:25:45.259Z,94.58
2019-06-27T01:26:21.545Z,94.58
2019-06-27T01:26:57.101Z,94.46
2019-06-27T01:27:33.395Z,94.69
2019-06-27T01:28:09.796Z,94.86
2019-06-27T01:28:45.610Z,94.81
2019-06-27T01:29:21.851Z,94.79
2019-06-27T01:30:10.987Z,94.76
2019-06-27T01:30:46.687Z,94.54
2019-06-27T01:31:22.956Z,94.70
2019-06-27T01:31:59.396Z,94.49
2019-06-27T01:32:35.004Z,94.42
2019-06-27T01:33:11.336Z,94.30
2019-06-27T01:33:47.632Z,93.96
2019-06-27T01:34:23.260Z,93.92
2019-06-27T01:34:59.550Z,93.98
2019-06-27T01:35:35.749Z,94.06
2019-06-27T01:36:11.242Z,94.01
2019-06-27T01:36:47.747Z,93.93
2019-06-27T01:37:24.215Z,94.03
2019-06-27T01:37:59.710Z,94.06
2019-06-27T01:38:35.946Z,94.09
2019-06-27T01:39:12.777Z,94.26
2019-06-27T01:39:48.346Z,94.29
2019-06-27T01:40:24.749Z,94.32
2019-06-27T01:41:01.154Z,94.17
2019-06-27T01:41:36.991Z,93.94
2019-06-27T01:42:13.242Z,93.61
2019-06-27T01:42:49.555Z,93.45
2019-06-27T01:43:25.151Z,93.62
2019-06-27T01:44:01.388Z,93.86
2019-06-27T01:44:42.601Z,94.09
2019-06-27T01:45:36.327Z,94.25
2019-06-27T01:46:12.566Z,94.53
2019-06-27T01:46:49.020Z,94.44
2019-06-27T01:47:24.561Z,94.44
2019-06-27T01:48:00.810Z,94.35
2019-06-27T01:48:37.205Z,94.41
2019-06-27T01:49:12.701Z,94.56
2019-06-27T01:49:49.049Z,94.57
2019-06-27T01:50:25.542Z,94.74
2019-06-27T01:51:01.138Z,94.90
2019-06-27T01:51:37.606Z,95.16
2019-06-27T01:52:14.057Z,95.35
2019-06-27T01:52:49.619Z,95.32
2019-06-27T01:53:25.815Z,95.41
2019-06-27T01:54:02.072Z,95.25
2019-06-27T01:54:37.589Z,95.34
2019-06-27T01:55:14.185Z,95.35
2019-06-27T01:55:50.471Z,95.15
2019-06-27T01:56:25.937Z,94.80
2019-06-27T01:57:02.451Z,94.64
2019-06-27T01:57:46.765Z,94.37
2019-06-27T01:58:15.922Z,94.29
2019-06-27T01:58:52.267Z,94.20
2019-06-27T01:59:28.560Z,94.36
2019-06-27T02:00:04.883Z,94.67
2019-06-27T02:00:41.247Z,94.74
2019-06-27T02:01:17.667Z,94.91
2019-06-27T02:01:53.167Z,94.99
2019-06-27T02:02:29.451Z,94.92
2019-06-27T02:03:05.672Z,94.80
2019-06-27T02:03:41.121Z,94.50
2019-06-27T02:04:17.451Z,94.12
2019-06-27T02:04:53.673Z,93.66
2019-06-27T02:05:30.335Z,93.66
2019-06-27T02:06:06.869Z,93.91
2019-06-27T02:06:43.155Z,94.16
2019-06-27T02:07:18.968Z,94.21
2019-06-27T02:07:55.549Z,94.19
2019-06-27T02:08:31.894Z,94.12
2019-06-27T02:09:07.862Z,94.03
2019-06-27T02:09:44.181Z,94.13
2019-06-27T02:10:21.736Z,94.19
2019-06-27T02:10:57.478Z,94.11
2019-06-27T02:11:33.792Z,94.15
2019-06-27T02:12:10.000Z,93.74
2019-06-27T02:12:45.453Z,93.66
2019-06-27T02:13:21.786Z,93.61
2019-06-27T02:13:58.102Z,93.45
2019-06-27T02:14:33.506Z,93.32
2019-06-27T02:15:10.549Z,92.92
2019-06-27T02:15:46.877Z,93.12
2019-06-27T02:16:22.413Z,93.09
2019-06-27T02:16:58.688Z,93.16
2019-06-27T02:17:35.039Z,93.13
2019-06-27T02:18:10.517Z,93.24
2019-06-27T02:18:46.813Z,93.25
2019-06-27T02:19:23.556Z,93.22
2019-06-27T02:19:59.084Z,93.05
2019-06-27T02:20:35.702Z,93.06
2019-06-27T02:21:11.994Z,93.03
2019-06-27T02:21:47.484Z,93.10
2019-06-27T02:22:23.853Z,93.12
2019-06-27T02:23:01.726Z,93.20
2019-06-27T02:23:37.233Z,93.12
2019-06-27T02:24:13.608Z,93.13
2019-06-27T02:24:49.888Z,93.12
2019-06-27T02:25:25.735Z,93.41
2019-06-27T02:26:01.995Z,93.60
2019-06-27T02:26:38.409Z,94.06
2019-06-27T02:27:13.989Z,94.17
2019-06-27T02:28:03.094Z,94.00
2019-06-27T02:28:28.721Z,93.86
2019-06-27T02:29:04.097Z,93.88
2019-06-27T02:29:40.406Z,93.77
2019-06-27T02:30:22.447Z,93.67
2019-06-27T02:31:13.778Z,93.21
2019-06-27T02:31:50.046Z,92.98
2019-06-27T02:32:26.301Z,93.13
2019-06-27T02:33:01.896Z,93.14
2019-06-27T02:33:38.424Z,93.06
2019-06-27T02:34:14.992Z,93.05
2019-06-27T02:34:50.500Z,93.25
2019-06-27T02:35:27.286Z,92.96
2019-06-27T02:36:03.540Z,92.92
2019-06-27T02:36:39.115Z,93.12
2019-06-27T02:37:15.417Z,93.05
2019-06-27T02:37:51.716Z,92.80
2019-06-27T02:38:27.197Z,92.63
2019-06-27T02:39:03.564Z,92.46
2019-06-27T02:39:41.520Z,92.25
2019-06-27T02:40:18.726Z,92.35
2019-06-27T02:40:58.543Z,92.28
2019-06-27T02:41:34.923Z,92.51
2019-06-27T02:42:10.413Z,92.87
2019-06-27T02:42:47.022Z,93.25
2019-06-27T02:43:23.366Z,93.32
2019-06-27T02:43:58.888Z,93.41
2019-06-27T02:44:35.167Z,93.52
2019-06-27T02:45:11.714Z,93.70
2019-06-27T02:45:47.208Z,93.70
2019-06-27T02:46:23.510Z,93.48
2019-06-27T02:46:59.843Z,93.45
2019-06-27T02:47:35.321Z,93.49
2019-06-27T02:48:11.598Z,93.41
2019-06-27T02:48:47.851Z,93.58
2019-06-27T02:49:23.353Z,93.41
2019-06-27T02:49:59.602Z,93.19
2019-06-27T02:50:35.905Z,93.07
2019-06-27T02:51:11.336Z,93.06
2019-06-27T02:51:47.594Z,92.99
2019-06-27T02:52:24.047Z,93.09
2019-06-27T02:52:59.594Z,93.17
2019-06-27T02:53:35.826Z,93.42
2019-06-27T02:54:12.078Z,93.90
2019-06-27T02:54:47.526Z,93.83
2019-06-27T02:55:23.849Z,93.68
2019-06-27T02:56:00.228Z,93.67
2019-06-27T02:56:35.784Z,93.80
2019-06-27T02:57:12.117Z,93.90
2019-06-27T02:57:48.497Z,93.90
2019-06-27T02:58:31.175Z,93.77
2019-06-27T02:59:02.354Z,93.76
2019-06-27T02:59:38.726Z,93.80
2019-06-27T03:00:14.586Z,93.72
2019-06-27T03:00:50.824Z,93.70
2019-06-27T03:01:27.205Z,93.93
2019-06-27T03:02:02.824Z,94.05
2019-06-27T03:02:39.327Z,94.05
2019-06-27T03:03:16.049Z,93.78
2019-06-27T03:03:51.543Z,93.54
2019-06-27T03:04:28.071Z,93.33
2019-06-27T03:05:04.445Z,93.20
2019-06-27T03:05:39.912Z,92.98
2019-06-27T03:06:16.213Z,93.16
2019-06-27T03:06:52.523Z,93.17
2019-06-27T03:07:28.017Z,93.29
2019-06-27T03:08:04.513Z,93.31
2019-06-27T03:08:40.725Z,93.28
2019-06-27T03:09:16.169Z,93.38
2019-06-27T03:09:52.461Z,93.14
2019-06-27T03:10:28.860Z,93.09
2019-06-27T03:11:04.422Z,93.18
2019-06-27T03:11:40.622Z,92.89
2019-06-27T03:12:17.151Z,92.80
2019-06-27T03:12:52.679Z,92.93
2019-06-27T03:13:28.918Z,93.21
2019-06-27T03:14:05.396Z,93.45
2019-06-27T03:14:40.899Z,93.61
2019-06-27T03:15:17.412Z,93.32
2019-06-27T03:15:53.737Z,93.35
2019-06-27T03:16:29.204Z,93.68
2019-06-27T03:17:05.546Z,94.15
2019-06-27T03:17:41.871Z,94.36
2019-06-27T03:18:17.728Z,94.17
2019-06-27T03:18:54.081Z,93.99
2019-06-27T03:19:30.373Z,93.98
2019-06-27T03:20:06.813Z,93.71
2019-06-27T03:20:43.263Z,93.57
2019-06-27T03:21:19.529Z,93.52
2019-06-27T03:21:54.961Z,93.51
2019-06-27T03:22:31.197Z,93.71
2019-06-27T03:23:07.576Z,93.39
2019-06-27T03:23:43.059Z,93.45
2019-06-27T03:24:19.344Z,93.38
2019-06-27T03:24:55.906Z,93.34
2019-06-27T03:25:31.452Z,93.54
2019-06-27T03:26:07.932Z,93.64
2019-06-27T03:26:44.171Z,94.02
2019-06-27T03:27:19.639Z,94.12
2019-06-27T03:27:55.983Z,94.08
2019-06-27T03:28:50.911Z,93.94
2019-06-27T03:29:09.635Z,94.15
2019-06-27T03:29:45.898Z,94.51
2019-06-27T03:30:22.142Z,94.64
2019-06-27T03:30:57.586Z,94.57
2019-06-27T03:31:35.425Z,94.29
2019-06-27T03:32:11.869Z,94.28
2019-06-27T03:32:47.316Z,94.35
2019-06-27T03:33:23.571Z,94.61
2019-06-27T03:33:59.933Z,94.67
2019-06-27T03:34:35.359Z,94.57
2019-06-27T03:35:11.840Z,94.32
2019-06-27T03:35:48.027Z,94.27
2019-06-27T03:36:23.706Z,94.21
2019-06-27T03:37:00.024Z,94.05
2019-06-27T03:37:36.316Z,94.06
2019-06-27T03:38:11.750Z,94.07
2019-06-27T03:38:48.084Z,94.43
2019-06-27T03:39:24.392Z,94.37
2019-06-27T03:40:00.867Z,94.27
2019-06-27T03:40:37.195Z,94.47
2019-06-27T03:41:13.460Z,94.58
2019-06-27T03:41:48.931Z,94.51
2019-06-27T03:42:25.295Z,94.54
2019-06-27T03:43:01.550Z,94.37
2019-06-27T03:43:37.074Z,94.48
2019-06-27T03:44:13.487Z,94.65
2019-06-27T03:44:49.854Z,94.83
2019-06-27T03:45:25.291Z,94.88
2019-06-27T03:46:01.693Z,94.70
2019-06-27T03:46:38.062Z,94.57
2019-06-27T03:47:13.769Z,94.28
2019-06-27T03:47:50.080Z,94.43
2019-06-27T03:48:26.348Z,94.67
2019-06-27T03:49:01.974Z,95.18
2019-06-27T03:49:38.272Z,94.96
2019-06-27T03:50:14.567Z,94.96
2019-06-27T03:50:49.994Z,94.99
2019-06-27T03:51:26.245Z,95.09
2019-06-27T03:52:02.647Z,95.11
2019-06-27T03:52:38.087Z,95.15
2019-06-27T03:53:14.380Z,95.18
2019-06-27T03:53:50.872Z,95.08
2019-06-27T03:54:26.328Z,95.13
2019-06-27T03:55:04.343Z,95.22
2019-06-27T03:55:40.599Z,95.12
2019-06-27T03:56:16.077Z,95.12
2019-06-27T03:56:52.376Z,95.06
2019-06-27T03:57:28.702Z,95.12
2019-06-27T03:58:04.140Z,95.18
2019-06-27T03:58:40.606Z,95.15
2019-06-27T03:59:16.819Z,95.06
2019-06-27T03:59:52.308Z,94.67
2019-06-27T04:00:34.382Z,94.66
2019-06-27T04:01:10.997Z,94.62
2019-06-27T04:01:46.587Z,94.89
2019-06-27T04:02:23.336Z,94.76
2019-06-27T04:02:59.549Z,94.38
2019-06-27T04:03:35.208Z,94.67
2019-06-27T04:04:11.475Z,94.88
2019-06-27T04:04:47.755Z,94.97
2019-06-27T04:05:23.246Z,94.88
2019-06-27T04:05:59.531Z,94.70
2019-06-27T04:06:35.800Z,94.76
2019-06-27T04:07:11.298Z,94.46
2019-06-27T04:07:47.625Z,94.23
2019-06-27T04:08:23.888Z,93.99
2019-06-27T04:08:59.373Z,93.81
2019-06-27T04:09:35.667Z,93.64
2019-06-27T04:10:16.810Z,93.31
2019-06-27T04:10:49.235Z,93.25
2019-06-27T04:11:25.635Z,93.41
2019-06-27T04:12:02.472Z,93.54
2019-06-27T04:12:37.989Z,93.43
2019-06-27T04:13:14.696Z,93.28
2019-06-27T04:13:51.068Z,93.09
2019-06-27T04:14:26.834Z,92.93
2019-06-27T04:15:03.075Z,93.25
2019-06-27T04:15:39.344Z,93.42
2019-06-27T04:16:14.837Z,93.46
2019-06-27T04:16:51.139Z,93.48
2019-06-27T04:17:27.333Z,93.40
2019-06-27T04:18:02.794Z,93.34
2019-06-27T04:18:39.125Z,93.24
2019-06-27T04:19:15.335Z,93.42
2019-06-27T04:19:50.880Z,93.36
2019-06-27T04:20:27.153Z,93.10
2019-06-27T04:21:03.684Z,93.22
2019-06-27T04:21:39.175Z,92.95
2019-06-27T04:22:17.563Z,92.57
2019-06-27T04:22:53.454Z,92.61
2019-06-27T04:23:29.332Z,92.21
2019-06-27T04:24:05.580Z,91.92
2019-06-27T04:24:42.113Z,92.18
2019-06-27T04:25:17.585Z,92.52
2019-06-27T04:25:53.905Z,92.80
2019-06-27T04:26:30.331Z,93.11
2019-06-27T04:27:06.720Z,93.15
2019-06-27T04:27:43.044Z,92.74
2019-06-27T04:28:19.348Z,92.66
2019-06-27T04:28:54.876Z,92.58
2019-06-27T04:29:34.078Z,92.53
2019-06-27T04:30:09.418Z,92.46
2019-06-27T04:30:45.205Z,92.36
2019-06-27T04:31:21.406Z,92.46
2019-06-27T04:31:57.635Z,92.44
2019-06-27T04:32:33.176Z,92.36
2019-06-27T04:33:09.450Z,92.23
2019-06-27T04:33:45.741Z,92.32
2019-06-27T04:34:21.253Z,92.50
2019-06-27T04:34:57.523Z,92.54
2019-06-27T04:35:33.934Z,92.59
2019-06-27T04:36:09.388Z,92.63
2019-06-27T04:36:45.659Z,92.49
2019-06-27T04:37:21.960Z,92.57
2019-06-27T04:37:57.565Z,92.67
2019-06-27T04:38:33.903Z,92.75
2019-06-27T04:39:10.182Z,92.80
2019-06-27T04:39:45.681Z,92.88
2019-06-27T04:40:21.951Z,92.74
2019-06-27T04:40:58.409Z,92.50
2019-06-27T04:41:33.909Z,92.20
2019-06-27T04:42:10.187Z,92.43
2019-06-27T04:42:46.563Z,92.70
2019-06-27T04:43:22.048Z,92.58
2019-06-27T04:43:58.319Z,92.45
2019-06-27T04:44:34.665Z,92.27
2019-06-27T04:45:10.216Z,92.29
2019-06-27T04:45:46.575Z,92.03
2019-06-27T04:46:22.993Z,92.18
2019-06-27T04:46:58.563Z,92.42
2019-06-27T04:47:34.921Z,92.32
2019-06-27T04:48:11.498Z,92.28
2019-06-27T04:48:47.043Z,92.17
2019-06-27T04:49:23.537Z,92.08
2019-06-27T04:49:59.866Z,92.32
2019-06-27T04:50:35.542Z,92.20
2019-06-27T04:51:11.812Z,91.86
2019-06-27T04:51:48.176Z,91.71
2019-06-27T04:52:23.718Z,91.55
2019-06-27T04:53:00.101Z,91.28
2019-06-27T04:53:36.491Z,91.11
2019-06-27T04:54:12.021Z,91.19
2019-06-27T04:54:48.396Z,91.32
2019-06-27T04:55:24.805Z,91.37
2019-06-27T04:56:00.371Z,91.39
2019-06-27T04:56:36.673Z,91.44
2019-06-27T04:57:13.988Z,91.43
2019-06-27T04:57:49.522Z,91.52
2019-06-27T04:58:25.795Z,91.39
2019-06-27T04:59:02.094Z,91.57
2019-06-27T04:59:52.597Z,91.62
2019-06-27T05:00:25.258Z,91.42
2019-06-27T05:01:01.577Z,91.26
2019-06-27T05:01:37.172Z,91.19
2019-06-27T05:02:13.585Z,90.93
2019-06-27T05:02:49.878Z,90.78
2019-06-27T05:03:25.351Z,90.90
2019-06-27T05:04:01.755Z,91.00
2019-06-27T05:04:38.155Z,90.87
2019-06-27T05:05:13.661Z,91.04
2019-06-27T05:05:50.048Z,91.00
2019-06-27T05:06:26.321Z,91.15
2019-06-27T05:07:01.970Z,90.95
2019-06-27T05:07:38.256Z,90.53
2019-06-27T05:08:15.039Z,90.49
2019-06-27T05:08:50.577Z,90.57
2019-06-27T05:09:27.001Z,90.64
2019-06-27T05:10:03.253Z,90.36
2019-06-27T05:10:38.790Z,90.44
2019-06-27T05:11:15.013Z,90.54
2019-06-27T05:11:51.418Z,90.37
2019-06-27T05:12:27.389Z,90.07
2019-06-27T05:13:03.711Z,90.09
2019-06-27T05:13:40.152Z,90.06
2019-06-27T05:14:15.641Z,89.96
2019-06-27T05:14:51.978Z,89.90
2019-06-27T05:15:28.353Z,89.62
2019-06-27T05:16:03.858Z,89.47
2019-06-27T05:16:40.132Z,89.26
2019-06-27T05:17:16.309Z,88.82
2019-06-27T05:17:51.787Z,88.82
2019-06-27T05:18:28.097Z,88.91
2019-06-27T05:19:04.403Z,88.81
2019-06-27T05:19:39.974Z,88.71
2019-06-27T05:20:16.413Z,88.84
2019-06-27T05:20:52.738Z,89.13
2019-06-27T05:21:29.099Z,89.31
2019-06-27T05:22:05.352Z,89.37
2019-06-27T05:22:41.578Z,89.07
2019-06-27T05:23:17.227Z,89.15
2019-06-27T05:23:53.498Z,89.38
2019-06-27T05:24:29.774Z,89.20
2019-06-27T05:25:05.472Z,89.05
2019-06-27T05:25:42.730Z,88.94
2019-06-27T05:26:19.038Z,88.97
2019-06-27T05:26:54.630Z,88.64
2019-06-27T05:27:30.817Z,88.55
2019-06-27T05:28:07.250Z,88.20
2019-06-27T05:28:42.863Z,88.23
2019-06-27T05:29:19.220Z,88.17
2019-06-27T05:30:08.576Z,88.16
2019-06-27T05:30:32.736Z,88.31
2019-06-27T05:31:09.007Z,88.37
2019-06-27T05:31:45.258Z,88.24
2019-06-27T05:32:20.836Z,88.07
2019-06-27T05:32:57.297Z,87.85
2019-06-27T05:33:33.558Z,87.50
2019-06-27T05:34:09.170Z,87.34
2019-06-27T05:34:45.606Z,86.98
2019-06-27T05:35:21.875Z,87.30
2019-06-27T05:35:57.356Z,87.26
2019-06-27T05:36:33.842Z,87.36
2019-06-27T05:37:10.233Z,87.08
2019-06-27T05:37:45.729Z,86.64
2019-06-27T05:38:22.234Z,86.46
2019-06-27T05:38:58.542Z,86.56
2019-06-27T05:39:34.332Z,86.35
2019-06-27T05:40:11.434Z,86.36
2019-06-27T05:40:47.738Z,86.65
2019-06-27T05:41:23.311Z,86.69
2019-06-27T05:41:59.733Z,86.68
2019-06-27T05:42:36.136Z,86.69
2019-06-27T05:43:11.632Z,86.47
2019-06-27T05:43:47.942Z,86.69
2019-06-27T05:44:24.313Z,86.65
2019-06-27T05:44:59.771Z,86.49
2019-06-27T05:45:36.250Z,86.48
2019-06-27T05:46:12.586Z,86.36
2019-06-27T05:46:48.244Z,86.44
2019-06-27T05:47:24.649Z,86.79
2019-06-27T05:48:01.060Z,86.89
2019-06-27T05:48:39.709Z,87.01
2019-06-27T05:49:15.064Z,86.99
2019-06-27T05:49:51.906Z,86.75
2019-06-27T05:50:27.620Z,86.54
2019-06-27T05:51:03.989Z,86.42
2019-06-27T05:51:40.304Z,86.23
2019-06-27T05:52:15.801Z,86.17
2019-06-27T05:52:52.123Z,85.98
2019-06-27T05:53:28.486Z,85.51
2019-06-27T05:54:04.187Z,85.01
2019-06-27T05:54:42.366Z,84.56
2019-06-27T05:55:18.783Z,84.45
2019-06-27T05:55:54.858Z,84.08
2019-06-27T05:56:31.160Z,83.65
2019-06-27T05:57:07.732Z,83.26
2019-06-27T05:57:43.371Z,82.70
2019-06-27T05:58:20.005Z,82.00
2019-06-27T05:58:56.489Z,81.80
2019-06-27T05:59:32.263Z,81.55
2019-06-27T06:00:26.145Z,81.44
2019-06-27T06:00:47.670Z,81.71
2019-06-27T06:01:23.308Z,82.13
2019-06-27T06:01:59.679Z,82.32
2019-06-27T06:02:36.193Z,81.60
2019-06-27T06:03:11.792Z,80.82
2019-06-27T06:03:48.200Z,79.70
2019-06-27T06:04:24.663Z,79.22
2019-06-27T06:05:00.198Z,78.40
2019-06-27T06:05:36.806Z,77.93
2019-06-27T06:06:13.183Z,77.99
2019-06-27T06:06:49.000Z,78.09
2019-06-27T06:07:25.339Z,77.86
2019-06-27T06:08:01.675Z,77.95
2019-06-27T06:08:37.519Z,77.76
2019-06-27T06:09:13.869Z,77.66
2019-06-27T06:09:50.352Z,77.30
2019-06-27T06:10:25.938Z,76.87
2019-06-27T06:11:02.571Z,76.74
2019-06-27T06:11:39.005Z,76.96
2019-06-27T06:12:14.891Z,77.15
2019-06-27T06:12:51.235Z,76.94
2019-06-27T06:13:29.182Z,77.11
2019-06-27T06:14:05.086Z,76.83
2019-06-27T06:14:41.491Z,76.55
2019-06-27T06:15:17.966Z,76.22
2019-06-27T06:15:53.520Z,75.57
2019-06-27T06:16:29.820Z,75.49
2019-06-27T06:17:06.345Z,75.91
2019-06-27T06:17:41.871Z,76.26
2019-06-27T06:18:18.721Z,76.20
2019-06-27T06:18:55.010Z,76.13
2019-06-27T06:19:30.842Z,75.36
2019-06-27T06:20:07.440Z,75.52
2019-06-27T06:20:43.778Z,74.78
2019-06-27T06:21:19.286Z,75.03
2019-06-27T06:21:55.683Z,75.01
2019-06-27T06:22:32.007Z,74.63
2019-06-27T06:23:07.582Z,74.17
2019-06-27T06:23:43.899Z,73.91
2019-06-27T06:24:20.334Z,73.56
2019-06-27T06:24:58.121Z,73.64
2019-06-27T06:25:33.979Z,73.38
2019-06-27T06:26:10.556Z,73.53
2019-06-27T06:26:46.159Z,73.57
2019-06-27T06:27:22.762Z,73.17
2019-06-27T06:27:59.050Z,73.09
2019-06-27T06:28:35.108Z,73.06
2019-06-27T06:29:11.454Z,73.63
2019-06-27T06:29:47.971Z,74.58
2019-06-27T06:30:23.990Z,74.63
2019-06-27T06:31:00.324Z,74.32
2019-06-27T06:31:36.636Z,74.10
2019-06-27T06:32:12.416Z,73.89
2019-06-27T06:32:48.876Z,73.75
2019-06-27T06:33:25.516Z,73.69
2019-06-27T06:34:01.357Z,73.41
2019-06-27T06:34:37.641Z,72.76
2019-06-27T06:35:14.007Z,72.82
2019-06-27T06:35:49.637Z,73.20
2019-06-27T06:36:25.936Z,73.36
2019-06-27T06:37:02.220Z,73.37
2019-06-27T06:37:37.679Z,73.15
2019-06-27T06:38:14.130Z,73.04
2019-06-27T06:38:50.553Z,72.83
2019-06-27T06:39:26.146Z,72.46
2019-06-27T06:40:02.441Z,72.45
2019-06-27T06:40:38.968Z,72.02
2019-06-27T06:41:14.496Z,72.59
2019-06-27T06:41:50.889Z,73.08
2019-06-27T06:42:27.298Z,73.32
2019-06-27T06:43:03.189Z,73.78
2019-06-27T06:43:39.774Z,73.96
2019-06-27T06:44:16.046Z,73.75
2019-06-27T06:44:51.610Z,73.23
2019-06-27T06:45:28.045Z,73.21
2019-06-27T06:46:04.418Z,72.82
2019-06-27T06:46:39.974Z,72.35
2019-06-27T06:47:16.423Z,71.72
2019-06-27T06:47:52.787Z,71.05
2019-06-27T06:48:28.307Z,70.48
2019-06-27T06:49:04.716Z,70.89
2019-06-27T06:49:41.043Z,70.40
2019-06-27T06:50:16.652Z,70.56
2019-06-27T06:50:53.001Z,70.63
2019-06-27T06:51:29.444Z,69.85
2019-06-27T06:52:05.291Z,69.17
2019-06-27T06:52:41.672Z,68.94
2019-06-27T06:53:18.223Z,69.44
2019-06-27T06:53:53.783Z,69.34
2019-06-27T06:54:30.150Z,68.75
2019-06-27T06:55:06.661Z,68.27
2019-06-27T06:55:42.970Z,68.18
2019-06-27T06:56:19.789Z,68.62
2019-06-27T06:56:56.078Z,68.82
2019-06-27T06:57:31.639Z,68.85
2019-06-27T06:58:07.912Z,68.71
2019-06-27T06:58:44.158Z,67.82
2019-06-27T06:59:19.695Z,67.73
2019-06-27T06:59:56.080Z,66.67
2019-06-27T07:00:32.375Z,67.09
2019-06-27T07:01:07.941Z,67.18
2019-06-27T07:01:45.774Z,66.90
2019-06-27T07:02:22.336Z,67.71
2019-06-27T07:02:57.813Z,68.55
2019-06-27T07:03:34.104Z,68.76
2019-06-27T07:04:10.392Z,68.48
2019-06-27T07:04:46.094Z,68.47
2019-06-27T07:05:22.727Z,67.96
2019-06-27T07:05:59.170Z,67.36
2019-06-27T07:06:34.631Z,66.87
2019-06-27T07:07:13.247Z,66.43
2019-06-27T07:07:49.242Z,66.55
2019-06-27T07:08:24.822Z,66.40
2019-06-27T07:09:01.108Z,66.29
2019-06-27T07:09:37.438Z,66.12
2019-06-27T07:10:13.919Z,65.79
2019-06-27T07:10:51.116Z,65.64
2019-06-27T07:11:28.232Z,66.61
2019-06-27T07:12:03.892Z,66.63
2019-06-27T07:12:40.193Z,66.17
2019-06-27T07:13:16.543Z,65.97
2019-06-27T07:13:52.177Z,65.87
2019-06-27T07:14:28.494Z,65.67
2019-06-27T07:15:04.870Z,65.20
2019-06-27T07:15:40.464Z,65.14
2019-06-27T07:16:16.824Z,65.51
2019-06-27T07:16:53.079Z,66.73
2019-06-27T07:17:28.687Z,66.25
2019-06-27T07:18:04.938Z,65.90
2019-06-27T07:18:41.261Z,65.23
2019-06-27T07:19:16.897Z,64.87
2019-06-27T07:19:57.256Z,64.41
2019-06-27T07:20:31.305Z,64.52
2019-06-27T07:21:06.972Z,64.71
2019-06-27T07:21:43.294Z,64.82
2019-06-27T07:22:19.627Z,64.58
2019-06-27T07:22:55.368Z,64.32
2019-06-27T07:23:31.837Z,64.27
2019-06-27T07:24:08.127Z,63.61
2019-06-27T07:24:43.741Z,63.84
2019-06-27T07:25:20.049Z,63.55
2019-06-27T07:25:56.371Z,63.19
2019-06-27T07:26:31.881Z,62.56
2019-06-27T07:27:08.153Z,62.90
2019-06-27T07:27:44.377Z,62.78
2019-06-27T07:28:20.211Z,62.29
2019-06-27T07:28:56.609Z,61.97
2019-06-27T07:29:33.165Z,62.64
2019-06-27T07:30:10.373Z,62.67
2019-06-27T07:30:46.656Z,62.48
2019-06-27T07:31:23.001Z,62.45
2019-06-27T07:31:58.793Z,61.78
2019-06-27T07:32:35.183Z,60.73
2019-06-27T07:33:11.483Z,59.43
2019-06-27T07:33:47.135Z,58.27
2019-06-27T07:34:23.509Z,58.99
2019-06-27T07:34:59.914Z,59.55
2019-06-27T07:35:35.438Z,59.55
2019-06-27T07:36:11.748Z,59.24
2019-06-27T07:36:48.235Z,58.62
2019-06-27T07:37:23.783Z,58.79
2019-06-27T07:38:00.047Z,58.66
2019-06-27T07:38:36.571Z,58.55
2019-06-27T07:39:12.232Z,57.99
2019-06-27T07:39:48.569Z,57.74
2019-06-27T07:40:24.990Z,57.47
2019-06-27T07:41:00.870Z,56.98
2019-06-27T07:41:37.254Z,56.75
2019-06-27T07:42:13.681Z,56.24
2019-06-27T07:42:49.352Z,56.49
2019-06-27T07:43:25.745Z,57.24
2019-06-27T07:44:02.227Z,57.38
2019-06-27T07:44:37.793Z,57.04
2019-06-27T07:45:14.553Z,56.40
2019-06-27T07:45:50.902Z,56.01
2019-06-27T07:46:26.685Z,55.88
2019-06-27T07:47:03.108Z,55.71